.
WxDataArchive / Data Records for 2007-06-09
2007-06-08 June 2007 2007-06-10

Data Records for Saturday, 09 June 2007

Time	Temp	Chill	HIndex	Humid	Dewpt	 Wind 	HiWind	WindDir	Rain 	Barom 
-----	----	-----	------	-----	-----	------	------	-------	-----	----- 
00:00	53.3	53.3	53.3	79	47.0	0	0	---	0.00	30.028 
00:05	53.5	53.5	53.5	80	47.5	0	0	---	0.00	30.036 
00:10	53.6	53.6	53.6	80	47.6	0	0	---	0.00	30.033 
00:15	53.8	53.8	53.8	78	47.1	0	0	---	0.00	30.034 
00:20	54.1	54.1	54.1	77	47.0	0	0	---	0.00	30.035 
00:25	54.1	54.1	54.1	77	47.0	0	0	---	0.00	30.036 
00:30	54.5	54.5	54.5	75	46.7	0	0	---	0.00	30.033 
00:35	54.7	54.7	54.7	75	46.9	0	0	---	0.00	30.034 
00:40	54.8	54.8	54.8	75	47.0	0	0	---	0.00	30.031 
00:45	55.0	55.0	55.0	74	46.9	0	0	---	0.00	30.033 
00:50	55.3	55.3	55.3	73	46.8	0	0	---	0.00	30.034 
00:55	55.6	55.6	55.6	73	47.1	0	0	---	0.00	30.035 
01:00	55.6	55.6	55.6	73	47.1	0	0	---	0.00	30.035 
01:05	55.6	55.6	55.6	73	47.1	0	0	---	0.00	30.027 
01:10	55.6	55.6	55.6	73	47.1	0	0	---	0.00	30.027 
01:15	55.4	55.4	55.4	73	46.9	0	1	270	0.00	30.026 
01:20	55.4	55.4	55.4	73	46.9	0	1	270	0.00	30.026 
01:25	55.6	55.6	55.6	73	47.1	0	1	270	0.00	30.027 
01:30	55.6	55.6	55.6	73	47.1	0	1	270	0.00	30.028 
01:35	55.6	55.6	55.6	73	47.1	0	1	270	0.00	30.028 
01:40	55.6	55.6	55.6	72	46.7	0	0	---	0.00	30.028 
01:45	55.6	55.6	55.6	72	46.7	0	0	---	0.00	30.028 
01:50	55.6	55.6	55.6	72	46.7	0	1	270	0.00	30.025 
01:55	55.6	55.6	55.6	72	46.7	0	1	270	0.00	30.025 
02:00	55.6	55.6	55.6	72	46.7	0	1	270	0.00	30.023 
02:05	55.6	55.6	55.6	72	46.7	0	0	---	0.00	30.024 
02:10	55.4	55.4	55.4	73	46.9	0	1	270	0.00	30.024 
02:15	55.3	55.3	55.3	72	46.4	0	0	---	0.00	30.025 
02:20	55.3	55.3	55.3	73	46.8	0	0	---	0.00	30.028 
02:25	55.1	55.1	55.1	73	46.6	0	0	---	0.00	30.029 
02:30	55.0	55.0	55.0	73	46.5	0	1	270	0.00	30.029 
02:35	54.7	54.7	54.7	73	46.2	0	0	---	0.00	30.029 
02:40	54.5	54.5	54.5	73	46.0	0	0	---	0.00	30.029 
02:45	54.5	54.5	54.5	74	46.4	0	0	---	0.00	30.026 
02:50	54.4	54.4	54.4	74	46.3	0	1	270	0.00	30.029 
02:55	54.4	54.4	54.4	74	46.3	0	0	---	0.00	30.026 
03:00	54.4	54.4	54.4	74	46.3	0	0	---	0.00	30.027 
03:05	54.2	54.2	54.2	74	46.1	0	0	---	0.00	30.030 
03:10	54.2	54.2	54.2	74	46.1	0	0	---	0.00	30.032 
03:15	54.1	54.1	54.1	74	46.0	0	0	---	0.00	30.033 
03:20	53.8	53.8	53.8	75	46.1	0	0	---	0.00	30.034 
03:25	53.6	53.6	53.6	75	45.9	0	0	---	0.00	30.035 
03:30	53.5	53.5	53.5	75	45.8	0	0	---	0.00	30.037 
03:35	53.3	53.3	53.3	76	45.9	0	0	---	0.00	30.038 
03:40	53.1	53.1	53.1	76	45.7	0	0	---	0.00	30.044 
03:45	52.8	52.8	52.8	77	45.8	0	0	---	0.00	30.046 
03:50	52.5	52.5	52.5	77	45.5	0	0	---	0.00	30.049 
03:55	52.3	52.3	52.3	78	45.6	0	0	---	0.00	30.053 
04:00	52.0	52.0	52.0	78	45.4	0	0	---	0.00	30.055 
04:05	51.6	51.6	51.6	80	45.6	0	0	---	0.00	30.061 
04:10	51.3	51.3	51.3	81	45.7	0	0	---	0.00	30.065 
04:15	51.0	51.0	51.0	81	45.4	0	0	---	0.00	30.068 
04:20	50.7	50.7	50.7	82	45.4	0	0	---	0.00	30.070 
04:25	50.5	50.5	50.5	83	45.5	0	1	270	0.00	30.072 
04:30	50.2	50.2	50.2	84	45.6	0	0	---	0.00	30.072 
04:35	50.1	50.1	50.1	85	45.8	0	0	---	0.00	30.071 
04:40	49.8	49.8	49.8	85	45.5	0	0	---	0.00	30.072 
04:45	49.6	49.6	49.6	86	45.6	0	0	---	0.00	30.074 
04:50	49.5	49.5	49.5	86	45.5	0	0	---	0.00	30.078 
04:55	49.4	49.4	49.4	87	45.7	0	0	---	0.00	30.083 
05:00	49.2	49.2	49.2	87	45.5	0	0	---	0.00	30.085 
05:05	49.1	49.1	49.1	87	45.4	0	0	---	0.00	30.087 
05:10	48.9	48.9	48.9	88	45.5	0	0	---	0.00	30.087 
05:15	48.8	48.8	48.8	88	45.4	0	0	---	0.00	30.088 
05:20	48.8	48.8	48.8	89	45.7	0	0	---	0.00	30.089 
05:25	48.6	48.6	48.6	89	45.5	0	0	---	0.00	30.089 
05:30	48.6	48.6	48.6	89	45.5	0	0	---	0.00	30.089 
05:35	48.8	48.8	48.8	90	46.0	0	0	---	0.00	30.089 
05:40	48.8	48.8	48.8	90	46.0	0	0	---	0.00	30.090 
05:45	48.9	48.9	48.9	90	46.1	0	0	---	0.00	30.091 
05:50	49.2	49.2	49.2	91	46.7	0	0	---	0.00	30.092 
05:55	49.5	49.5	49.5	91	47.0	0	0	---	0.00	30.094 
06:00	49.9	49.9	49.9	90	47.1	0	0	---	0.00	30.099 
06:05	50.4	50.4	50.4	90	47.6	0	0	---	0.00	30.100 
06:10	51.0	51.0	51.0	88	47.6	0	0	---	0.00	30.100 
06:15	51.6	51.6	51.6	87	47.9	0	1	270	0.00	30.100 
06:20	52.3	52.3	52.3	85	47.9	0	0	---	0.00	30.099 
06:25	53.3	53.3	53.3	83	48.3	0	1	270	0.00	30.100 
06:30	54.5	54.5	54.5	78	47.8	0	1	270	0.00	30.100 
06:35	55.9	55.9	55.9	75	48.1	0	2	270	0.00	30.099 
06:40	57.0	57.0	57.0	72	48.1	0	1	270	0.00	30.099 
06:45	58.0	58.0	58.0	70	48.3	0	1	270	0.00	30.098 
06:50	59.2	59.2	59.2	67	48.2	0	2	270	0.00	30.099 
06:55	60.1	60.1	60.1	65	48.3	1	3	90	0.00	30.099 
07:00	60.9	60.9	60.9	64	48.6	0	3	90	0.00	30.103 
07:05	61.5	61.5	61.5	63	48.8	1	4	45	0.00	30.106 
07:10	62.0	62.0	62.0	63	49.3	1	3	68	0.00	30.103 
07:15	62.4	62.4	62.4	62	49.2	1	3	68	0.00	30.102 
07:20	62.9	62.9	62.9	62	49.7	1	3	45	0.00	30.105 
07:25	62.9	62.9	62.9	61	49.2	2	5	68	0.00	30.102 
07:30	62.9	62.9	62.9	64	50.5	2	4	112	0.00	30.103 
07:35	63.1	63.1	63.1	62	49.9	2	4	90	0.00	30.105 
07:40	63.1	63.1	63.1	64	50.7	2	6	90	0.00	30.106 
07:45	63.5	63.5	63.5	64	51.1	2	4	90	0.00	30.106 
07:50	64.0	64.0	64.0	63	51.1	2	4	90	0.00	30.105 
07:55	64.3	64.3	64.3	63	51.4	2	4	90	0.00	30.104 
08:00	64.5	64.5	64.5	64	52.0	2	5	90	0.00	30.103 
08:05	64.7	64.7	64.7	65	52.7	2	7	90	0.00	30.105 
08:10	64.8	64.8	64.8	65	52.8	2	4	90	0.00	30.103 
08:15	65.2	65.2	65.2	64	52.7	2	5	90	0.00	30.100 
08:20	65.2	65.2	65.2	65	53.1	3	5	90	0.00	30.100 
08:25	65.3	65.3	65.3	64	52.8	3	7	90	0.00	30.100 
08:30	65.6	65.6	65.6	63	52.7	2	6	90	0.00	30.101 
08:35	66.0	66.0	66.0	62	52.6	1	4	90	0.00	30.099 
08:40	66.3	66.3	66.3	62	52.9	1	4	112	0.00	30.100 
08:45	66.8	66.8	66.8	63	53.8	2	4	112	0.00	30.099 
08:50	67.1	67.1	67.1	62	53.6	2	4	90	0.00	30.103 
08:55	67.3	67.3	67.3	64	54.7	2	6	90	0.00	30.105 
09:00	67.1	67.1	67.1	65	54.9	3	5	90	0.00	30.104 
09:05	66.6	66.6	66.6	65	54.5	3	6	90	0.00	30.108 
09:10	65.6	65.6	65.6	67	54.3	3	5	90	0.00	30.102 
09:15	65.5	65.5	65.5	66	53.8	2	5	112	0.00	30.103 
09:20	65.8	65.8	65.8	67	54.5	2	4	112	0.00	30.103 
09:25	65.5	65.5	65.5	66	53.8	3	7	90	0.00	30.101 
09:30	65.8	65.8	65.8	64	53.3	2	5	112	0.00	30.100 
09:35	65.8	65.8	65.8	66	54.1	1	3	112	0.00	30.100 
09:40	66.6	66.6	66.6	61	52.7	2	7	112	0.00	30.100 
09:45	67.1	67.1	67.1	61	53.2	2	5	90	0.00	30.099 
09:50	67.6	67.6	67.6	57	51.8	2	3	90	0.00	30.099 
09:55	67.9	67.9	67.9	56	51.6	2	5	90	0.00	30.098 
10:00	67.6	67.6	67.6	58	52.3	2	5	90	0.00	30.099 
10:05	68.4	68.4	68.4	54	51.1	2	5	112	0.00	30.101 
10:10	68.8	68.8	68.8	55	52.0	2	6	90	0.00	30.103 
10:15	68.1	68.1	68.1	55	51.3	2	4	90	0.00	30.102 
10:20	67.8	67.8	67.8	53	50.0	0	3	90	0.00	30.103 
10:25	67.9	67.9	67.9	55	51.1	1	3	90	0.00	30.103 
10:30	68.1	68.1	68.1	57	52.3	1	3	90	0.00	30.101 
10:35	68.3	68.3	68.3	56	52.0	0	1	90	0.00	30.100 
10:40	68.9	68.9	68.9	57	53.0	1	4	90	0.00	30.099 
10:45	69.8	69.8	69.8	50	50.3	2	6	90	0.00	30.099 
10:50	69.6	69.6	69.6	52	51.2	3	5	90	0.00	30.098 
10:55	69.4	69.4	69.4	51	50.5	3	6	90	0.00	30.099 
11:00	69.4	69.4	69.4	51	50.5	1	4	112	0.00	30.100 
11:05	69.3	69.3	69.3	52	50.9	1	3	112	0.00	30.103 
11:10	69.4	69.4	69.4	54	52.0	0	2	112	0.00	30.103 
11:15	69.4	69.4	69.4	53	51.5	0	2	112	0.00	30.104 
11:20	69.1	69.1	69.1	54	51.7	0	1	112	0.00	30.104 
11:25	69.1	69.1	69.1	52	50.7	0	1	112	0.00	30.105 
11:30	69.3	69.3	69.3	51	50.4	0	1	112	0.00	30.104 
11:35	69.9	69.9	69.9	56	53.5	0	1	112	0.00	30.102 
11:40	71.1	71.1	71.1	57	55.1	1	3	68	0.00	30.101 
11:45	71.8	71.8	71.8	47	50.5	1	3	90	0.00	30.101 
11:50	71.6	71.6	71.6	47	50.3	1	3	135	0.00	30.101 
11:55	71.8	71.8	71.8	48	51.0	1	5	135	0.00	30.099 
12:00	71.8	71.8	71.8	48	51.0	1	3	135	0.00	30.099 
12:05	72.3	72.3	72.3	45	49.8	1	2	112	0.00	30.094 
12:10	72.8	72.8	72.8	53	54.7	1	5	180	0.00	30.095 
12:15	72.3	72.3	72.3	45	49.8	2	5	90	0.00	30.093 
12:20	71.6	71.6	71.6	46	49.7	1	4	90	0.00	30.092 
12:25	70.9	70.9	70.9	50	51.3	1	5	90	0.00	30.093 
12:30	70.9	70.9	70.9	49	50.8	1	4	112	0.00	30.092 
12:35	71.5	71.5	71.5	46	49.6	1	6	90	0.00	30.088 
12:40	72.3	72.3	72.3	46	50.3	2	5	90	0.00	30.085 
12:45	72.5	72.5	72.5	49	52.2	2	5	90	0.00	30.083 
12:50	72.8	72.8	72.8	45	50.2	2	5	112	0.00	30.082 
12:55	72.7	72.7	72.7	47	51.3	0	3	90	0.00	30.081 
13:00	72.8	72.8	72.8	52	54.1	0	2	90	0.00	30.079 
13:05	72.7	72.7	72.7	44	49.5	1	3	292	0.00	30.077 
13:10	73.0	73.0	73.0	44	49.8	1	2	292	0.00	30.076 
13:15	73.9	73.9	73.9	50	54.1	0	2	292	0.00	30.070 
13:20	74.2	74.2	74.2	46	52.1	0	2	292	0.00	30.067 
13:25	74.2	74.2	74.2	43	50.2	1	4	90	0.00	30.067 
13:30	74.0	74.0	74.0	49	53.6	2	4	90	0.00	30.066 
13:35	73.9	73.9	73.9	42	49.3	2	4	90	0.00	30.065 
13:40	73.7	73.7	73.7	44	50.4	1	6	135	0.00	30.065 
13:45	74.2	74.2	74.2	47	52.7	1	3	202	0.00	30.064 
13:50	74.2	74.2	74.2	43	50.2	1	4	90	0.00	30.062 
13:55	74.6	74.6	74.6	42	50.0	0	3	68	0.00	30.062 
14:00	74.2	74.2	74.2	42	49.6	1	3	68	0.00	30.060 
14:05	73.9	73.9	73.9	43	50.0	1	2	315	0.00	30.061 
14:10	74.6	74.6	74.6	43	50.6	1	4	0	0.00	30.061 
14:15	74.7	74.7	74.7	44	51.3	1	4	68	0.00	30.059 
14:20	74.7	74.7	74.7	41	49.4	1	2	135	0.00	30.060 
14:25	74.9	74.9	74.9	43	50.9	1	3	135	0.00	30.061 
14:30	74.9	74.9	74.9	46	52.7	1	3	135	0.00	30.062 
14:35	74.9	74.9	74.9	42	50.2	1	3	135	0.00	30.060 
14:40	75.3	75.3	77.6	41	50.0	1	2	90	0.00	30.060 
14:45	75.6	75.6	77.7	41	50.2	0	2	45	0.00	30.058 
14:50	76.0	76.0	77.9	41	50.6	1	4	270	0.00	30.056 
14:55	76.3	76.3	77.9	39	49.5	0	1	270	0.00	30.055 
15:00	76.5	76.5	78.0	40	50.4	1	3	112	0.00	30.052 
15:05	76.7	76.7	78.1	40	50.5	1	3	112	0.00	30.051 
15:10	76.7	76.7	78.1	40	50.5	1	3	248	0.00	30.052 
15:15	76.8	76.8	78.2	42	51.9	1	3	112	0.00	30.051 
15:20	76.8	76.8	78.1	39	49.9	1	3	112	0.00	30.051 
15:25	76.5	76.5	77.9	38	49.0	2	4	90	0.00	30.050 
15:30	76.5	76.5	78.0	40	50.4	2	5	112	0.00	30.050 
15:35	76.3	76.3	77.9	40	50.2	1	4	90	0.00	30.049 
15:40	76.0	76.0	78.0	44	52.5	2	4	90	0.00	30.047 
15:45	75.8	75.8	77.8	42	51.1	1	3	90	0.00	30.041 
15:50	76.0	76.0	77.9	41	50.6	1	4	112	0.00	30.040 
15:55	76.3	76.3	77.9	40	50.2	1	3	135	0.00	30.037 
16:00	76.7	76.7	78.1	40	50.5	1	4	90	0.00	30.040 
16:05	76.8	76.8	78.0	38	49.2	1	4	90	0.00	30.042 
16:10	76.3	76.3	77.9	39	49.5	2	5	90	0.00	30.045 
16:15	76.1	76.1	77.8	38	48.6	0	2	112	0.00	30.044 
16:20	76.0	76.0	77.9	41	50.6	1	2	112	0.00	30.045 
16:25	75.8	75.8	77.8	42	51.1	1	3	112	0.00	30.043 
16:30	76.0	76.0	77.7	38	48.5	1	2	112	0.00	30.043 
16:35	76.3	76.3	77.8	37	48.1	1	3	135	0.00	30.043 
16:40	76.5	76.5	78.2	44	52.9	1	3	135	0.00	30.042 
16:45	76.5	76.5	78.1	41	51.0	1	3	158	0.00	30.040 
16:50	76.3	76.3	77.8	37	48.1	1	3	158	0.00	30.039 
16:55	76.1	76.1	77.8	39	49.3	0	2	180	0.00	30.039 
17:00	76.1	76.1	77.9	40	50.0	1	2	158	0.00	30.038 
17:05	76.0	76.0	77.8	39	49.2	0	2	158	0.00	30.036 
17:10	75.8	75.8	77.7	40	49.7	1	3	158	0.00	30.035 
17:15	75.8	75.8	77.7	38	48.4	0	2	135	0.00	30.032 
17:20	75.4	75.4	77.6	40	49.4	1	4	90	0.00	30.034 
17:25	75.4	75.4	77.6	40	49.4	0	2	90	0.00	30.032 
17:30	75.3	75.3	77.6	42	50.6	0	1	90	0.00	30.032 
17:35	75.1	75.1	77.5	40	49.1	1	3	90	0.00	30.031 
17:40	74.9	74.9	74.9	40	48.9	1	2	90	0.00	30.028 
17:45	74.6	74.6	74.6	41	49.3	1	4	90	0.00	30.029 
17:50	74.4	74.4	74.4	41	49.1	2	7	90	0.00	30.033 
17:55	74.2	74.2	74.2	43	50.2	2	6	90	0.00	30.034 
18:00	74.0	74.0	74.0	42	49.4	1	5	90	0.00	30.030 
18:05	73.9	73.9	73.9	44	50.6	2	7	90	0.00	30.021 
18:10	73.9	73.9	73.9	43	50.0	2	4	90	0.00	30.019 
18:15	73.7	73.7	73.7	43	49.8	1	5	112	0.00	30.019 
18:20	73.5	73.5	73.5	43	49.6	1	4	112	0.00	30.020 
18:25	73.3	73.3	73.3	44	50.1	1	4	90	0.00	30.020 
18:30	73.2	73.2	73.2	43	49.3	2	5	90	0.00	30.021 
18:35	73.0	73.0	73.0	43	49.2	1	3	112	0.00	30.022 
18:40	73.0	73.0	73.0	44	49.8	1	3	112	0.00	30.024 
18:45	72.8	72.8	72.8	43	49.0	2	3	112	0.00	30.022 
18:50	72.7	72.7	72.7	44	49.5	1	4	112	0.00	30.019 
18:55	72.3	72.3	72.3	45	49.8	1	4	90	0.00	30.017 
19:00	72.3	72.3	72.3	44	49.2	1	5	90	0.00	30.019 
19:05	72.1	72.1	72.1	44	49.0	1	3	90	0.00	30.015 
19:10	72.0	72.0	72.0	45	49.5	1	3	90	0.00	30.016 
19:15	71.8	71.8	71.8	45	49.3	1	4	90	0.00	30.016 
19:20	71.6	71.6	71.6	45	49.1	1	3	112	0.00	30.019 
19:25	71.3	71.3	71.3	44	48.2	1	3	112	0.00	30.021 
19:30	71.1	71.1	71.1	45	48.7	1	2	135	0.00	30.016 
19:35	70.9	70.9	70.9	46	49.1	0	2	135	0.00	30.014 
19:40	70.8	70.8	70.8	46	49.0	0	2	135	0.00	30.013 
19:45	70.4	70.4	70.4	46	48.6	0	2	135	0.00	30.013 
19:50	70.1	70.1	70.1	47	48.9	0	2	135	0.00	30.012 
19:55	69.8	69.8	69.8	48	49.2	0	1	135	0.00	30.012 
20:00	69.4	69.4	69.4	49	49.4	0	1	135	0.00	30.009 
20:05	69.1	69.1	69.1	50	49.7	0	1	135	0.00	30.004 
20:10	68.8	68.8	68.8	49	48.8	0	1	135	0.00	30.003 
20:15	68.6	68.6	68.6	50	49.2	0	1	135	0.00	30.000 
20:20	68.3	68.3	68.3	51	49.5	0	1	135	0.00	30.000 
20:25	67.9	67.9	67.9	51	49.1	0	1	135	0.00	30.003 
20:30	67.6	67.6	67.6	51	48.8	0	0	---	0.00	30.002 
20:35	67.1	67.1	67.1	53	49.4	0	0	---	0.00	30.003 
20:40	66.4	66.4	66.4	53	48.7	0	0	---	0.00	30.007 
20:45	66.0	66.0	66.0	55	49.4	0	0	---	0.00	30.004 
20:50	65.3	65.3	65.3	55	48.7	0	0	---	0.00	30.007 
20:55	64.8	64.8	64.8	56	48.7	0	0	---	0.00	30.010 
21:00	64.5	64.5	64.5	57	48.9	0	0	---	0.00	30.013 
21:05	64.0	64.0	64.0	58	48.9	0	0	---	0.00	30.016 
21:10	63.7	63.7	63.7	58	48.6	0	0	---	0.00	30.016 
21:15	63.4	63.4	63.4	60	49.3	0	0	---	0.00	30.016 
21:20	63.1	63.1	63.1	61	49.4	0	0	---	0.00	30.020 
21:25	62.7	62.7	62.7	62	49.5	0	0	---	0.00	30.021 
21:30	62.4	62.4	62.4	64	50.1	0	0	---	0.00	30.021 
21:35	62.0	62.0	62.0	64	49.7	0	0	---	0.00	30.027 
21:40	61.6	61.6	61.6	64	49.3	0	0	---	0.00	30.031 
21:45	61.5	61.5	61.5	64	49.2	0	0	---	0.00	30.031 
21:50	61.3	61.3	61.3	66	49.8	0	0	---	0.00	30.031 
21:55	61.3	61.3	61.3	64	49.0	0	1	135	0.00	30.030 
22:00	61.8	61.8	61.8	62	48.6	0	1	135	0.00	30.028 
22:05	62.1	62.1	62.1	62	48.9	0	1	135	0.00	30.027 
22:10	62.4	62.4	62.4	61	48.8	0	1	135	0.00	30.024 
22:15	62.4	62.4	62.4	61	48.8	0	1	135	0.00	30.026 
22:20	62.3	62.3	62.3	62	49.1	0	0	---	0.00	30.027 
22:25	62.1	62.1	62.1	60	48.0	0	1	135	0.00	30.026 
22:30	62.1	62.1	62.1	60	48.0	0	1	135	0.00	30.025 
22:35	62.1	62.1	62.1	59	47.6	0	1	135	0.00	30.027 
22:40	62.1	62.1	62.1	60	48.0	0	0	---	0.00	30.028 
22:45	61.8	61.8	61.8	59	47.3	0	0	---	0.00	30.024 
22:50	61.5	61.5	61.5	60	47.5	0	0	---	0.00	30.021 
22:55	61.0	61.0	61.0	60	47.0	0	0	---	0.00	30.024 
23:00	60.5	60.5	60.5	61	47.0	0	0	---	0.00	30.024 
23:05	60.2	60.2	60.2	61	46.7	0	0	---	0.00	30.023 
23:10	59.8	59.8	59.8	62	46.8	0	0	---	0.00	30.025 
23:15	59.5	59.5	59.5	62	46.5	0	0	---	0.00	30.026 
23:20	59.0	59.0	59.0	63	46.4	0	0	---	0.00	30.031 
23:25	58.7	58.7	58.7	64	46.6	0	0	---	0.00	30.029 
23:30	58.6	58.6	58.6	65	46.9	0	0	---	0.00	30.030 
23:35	58.3	58.3	58.3	66	47.0	0	0	---	0.00	30.030 
23:40	58.0	58.0	58.0	68	47.5	0	0	---	0.00	30.032 
23:45	57.6	57.6	57.6	69	47.5	0	0	---	0.00	30.029 
23:50	57.3	57.3	57.3	69	47.2	0	0	---	0.00	30.031 
23:55	57.0	57.0	57.0	69	46.9	0	0	---	0.00	30.026 

CoCoRaHS
IN-AL-39
A2 Web Hosting
Creative Commons License
GoDaddy
Look for:

loaded 2017-12-12 06:56:22 • last modified 2010-11-18 10:43:29
Privacy PolicyDisclaimer
• wx.awcolley.com is powered by PmWiki v.2002016 •
• all content (unless otherwise noted) © 2017 A W Colley